Terminal Aerodrome Forecast
Issued by NWS

Home | Current Version | Previous Version | Graphics & Text | Print | Product List | Glossary On
Versions: 1 2 3 4 5 6 7 8 9 10 11 12 13 14 15 16
044
FTUS43 KGRB 191135
TAFMTW
TAF
KMTW 191135Z 1912/2012 35006KT P6SM SCT110
     FM191600 05007KT P6SM SKC
     FM192000 15006KT P6SM BKN150
     FM200500 17005KT P6SM VCSH SCT050 BKN100
      TEMPO 2006/2010 4SM -TSRA BKN025CB=

USA.gov is the U.S. government's official web portal to all federal, state and local government web resources and services.